LFSN 211130Z AUTO 35005KT 320V040 9999 FEW026 04/M00 Q1035

ElémentsDécodage
LFSN Station météo située sur l'aérodrome de NANCY Essey
211130Z émis le 21 du mois à 11h30 UTC
AUTO Bulletin édité par un automate
35005KT vent du 350°, 05 noeuds
320V040 vent de direction variable entre 320° et 040°
9999 visibilité horizontale supérieure à 10 Km
FEW026 nuages rares (1/8 à 2/8) à 2600 pieds
04/M00 température 04°C, point de rosée 00°C
 soit une humidité relative de 75%
Q1035 la pression au niveau de la mer (QNH) est de 1035 hPa